createdAt,value
2022-10-09T00:01:01.957Z,14.49
2022-10-09T00:03:28.725Z,14.65
2022-10-09T00:05:55.300Z,14.61
2022-10-09T00:08:21.905Z,14.57
2022-10-09T00:10:48.504Z,14.53
2022-10-09T00:13:15.399Z,14.54
2022-10-09T00:15:44.630Z,14.59
2022-10-09T00:18:14.844Z,14.58
2022-10-09T00:20:43.767Z,14.54
2022-10-09T00:23:11.498Z,14.46
2022-10-09T00:25:38.408Z,14.40
2022-10-09T00:28:05.407Z,14.55
2022-10-09T00:30:32.400Z,14.62
2022-10-09T00:32:59.054Z,14.51
2022-10-09T00:35:27.019Z,14.49
2022-10-09T00:37:53.623Z,14.53
2022-10-09T00:40:20.198Z,14.39
2022-10-09T00:42:47.053Z,14.39
2022-10-09T00:45:19.747Z,14.26
2022-10-09T00:47:50.282Z,14.16
2022-10-09T00:50:19.825Z,14.10
2022-10-09T00:52:53.091Z,14.09
2022-10-09T00:55:21.224Z,14.12
2022-10-09T00:57:47.968Z,14.26
2022-10-09T01:00:15.043Z,14.10
2022-10-09T01:02:41.672Z,14.18
2022-10-09T01:05:09.969Z,14.16
2022-10-09T01:07:42.893Z,14.08
2022-10-09T01:10:24.190Z,13.85
2022-10-09T01:12:59.254Z,13.75
2022-10-09T01:15:31.667Z,13.63
2022-10-09T01:18:06.794Z,13.57
2022-10-09T01:20:41.639Z,13.50
2022-10-09T01:23:53.314Z,13.68
2022-10-09T01:27:06.720Z,13.52
2022-10-09T01:29:38.573Z,13.62
2022-10-09T01:32:07.658Z,13.61
2022-10-09T01:34:35.075Z,13.63
2022-10-09T01:37:02.839Z,13.60
2022-10-09T01:39:31.250Z,13.51
2022-10-09T01:41:58.231Z,13.54
2022-10-09T01:44:28.016Z,13.65
2022-10-09T01:46:56.375Z,13.70
2022-10-09T01:49:37.026Z,13.56
2022-10-09T01:52:15.597Z,13.45
2022-10-09T01:54:52.215Z,13.52
2022-10-09T01:57:29.504Z,13.53
2022-10-09T01:59:58.764Z,13.59
2022-10-09T02:02:27.858Z,13.47
2022-10-09T02:04:55.359Z,13.15
2022-10-09T02:07:24.029Z,13.54
2022-10-09T02:09:51.330Z,13.29
2022-10-09T02:12:20.303Z,13.46
2022-10-09T02:14:46.965Z,13.53
2022-10-09T02:17:18.164Z,13.42
2022-10-09T02:19:49.950Z,13.43
2022-10-09T02:22:19.871Z,13.57
2022-10-09T02:24:47.275Z,13.55
2022-10-09T02:27:16.009Z,13.41
2022-10-09T02:29:44.688Z,13.42
2022-10-09T02:32:12.569Z,13.44
2022-10-09T02:34:39.380Z,13.35
2022-10-09T02:37:07.951Z,13.46
2022-10-09T02:39:34.911Z,13.18
2022-10-09T02:42:01.761Z,13.23
2022-10-09T02:44:28.423Z,13.14
2022-10-09T02:46:55.080Z,13.38
2022-10-09T02:49:21.675Z,13.37
2022-10-09T02:51:48.226Z,13.15
2022-10-09T02:54:16.144Z,13.07
2022-10-09T02:56:42.834Z,12.98
2022-10-09T02:59:09.383Z,13.16
2022-10-09T03:01:36.132Z,13.04
2022-10-09T03:04:02.930Z,13.03
2022-10-09T03:06:29.736Z,13.01
2022-10-09T03:08:56.548Z,13.03
2022-10-09T03:11:25.507Z,13.12
2022-10-09T03:13:52.195Z,13.14
2022-10-09T03:16:20.387Z,13.09
2022-10-09T03:18:47.997Z,13.15
2022-10-09T03:21:16.939Z,13.30
2022-10-09T03:23:44.047Z,13.15
2022-10-09T03:26:12.883Z,13.13
2022-10-09T03:28:42.687Z,13.12
2022-10-09T03:31:22.401Z,13.16
2022-10-09T03:33:57.182Z,13.29
2022-10-09T03:36:23.716Z,13.42
2022-10-09T03:38:50.268Z,13.40
2022-10-09T03:41:16.851Z,13.36
2022-10-09T03:43:44.877Z,13.28
2022-10-09T03:46:12.314Z,13.28
2022-10-09T03:48:38.969Z,13.30
2022-10-09T03:51:05.789Z,13.44
2022-10-09T03:53:32.364Z,13.34
2022-10-09T03:55:58.988Z,13.34
2022-10-09T03:58:25.665Z,13.31
2022-10-09T04:00:54.013Z,13.37
2022-10-09T04:03:20.919Z,13.14
2022-10-09T04:05:47.522Z,13.09
2022-10-09T04:08:14.597Z,13.20
2022-10-09T04:10:41.195Z,12.95
2022-10-09T04:13:07.771Z,13.09
2022-10-09T04:15:34.758Z,13.15
2022-10-09T04:18:02.814Z,13.19
2022-10-09T04:20:29.398Z,13.07
2022-10-09T04:22:55.981Z,13.16
2022-10-09T04:25:22.605Z,13.22
2022-10-09T04:27:49.167Z,12.93
2022-10-09T04:30:15.816Z,13.27
2022-10-09T04:32:42.699Z,13.14
2022-10-09T04:35:10.637Z,13.34
2022-10-09T04:37:37.212Z,13.10
2022-10-09T04:40:04.361Z,13.03
2022-10-09T04:42:30.952Z,13.37
2022-10-09T04:44:57.506Z,13.32
2022-10-09T04:47:24.141Z,13.22
2022-10-09T04:49:50.703Z,13.31
2022-10-09T04:52:18.636Z,13.30
2022-10-09T04:54:45.254Z,13.18
2022-10-09T04:57:11.871Z,13.06
2022-10-09T04:59:38.417Z,13.01
2022-10-09T05:02:05.078Z,13.03
2022-10-09T05:04:31.808Z,13.03
2022-10-09T05:06:58.391Z,13.10
2022-10-09T05:09:26.388Z,13.15
2022-10-09T05:11:52.922Z,13.06
2022-10-09T05:14:19.492Z,13.14
2022-10-09T05:17:11.748Z,12.97
2022-10-09T05:19:33.157Z,12.97
2022-10-09T05:22:00.091Z,12.78
2022-10-09T05:24:28.882Z,12.78
2022-10-09T05:26:55.471Z,12.76
2022-10-09T05:29:22.107Z,13.09
2022-10-09T05:31:49.797Z,12.90
2022-10-09T05:34:16.515Z,12.86
2022-10-09T05:36:43.133Z,13.08
2022-10-09T05:39:09.734Z,13.24
2022-10-09T05:41:37.679Z,13.21
2022-10-09T05:44:04.686Z,13.26
2022-10-09T05:46:31.447Z,13.06
2022-10-09T05:48:59.535Z,13.19
2022-10-09T05:51:27.739Z,13.34
2022-10-09T05:53:54.812Z,13.36
2022-10-09T05:56:23.506Z,13.31
2022-10-09T05:58:53.349Z,13.41
2022-10-09T06:01:20.915Z,13.62
2022-10-09T06:03:52.450Z,13.65
2022-10-09T06:06:21.398Z,13.56
2022-10-09T06:08:48.339Z,13.62
2022-10-09T06:11:17.263Z,13.79
2022-10-09T06:13:44.375Z,13.84
2022-10-09T06:16:13.777Z,13.94
2022-10-09T06:18:40.645Z,14.15
2022-10-09T06:21:07.798Z,13.90
2022-10-09T06:23:35.139Z,14.11
2022-10-09T06:26:03.860Z,14.23
2022-10-09T06:28:31.876Z,14.20
2022-10-09T06:31:01.802Z,14.11
2022-10-09T06:33:31.465Z,14.31
2022-10-09T06:36:09.665Z,14.33
2022-10-09T06:38:37.440Z,14.22
2022-10-09T06:41:05.060Z,14.39
2022-10-09T06:43:31.753Z,14.52
2022-10-09T06:46:01.358Z,14.52
2022-10-09T06:48:30.364Z,14.35
2022-10-09T06:51:01.020Z,14.54
2022-10-09T06:53:27.616Z,14.64
2022-10-09T06:55:55.475Z,14.77
2022-10-09T06:58:22.405Z,14.87
2022-10-09T07:00:48.939Z,14.84
2022-10-09T07:03:15.545Z,14.80
2022-10-09T07:05:43.546Z,15.07
2022-10-09T07:08:10.084Z,15.07
2022-10-09T07:10:36.660Z,15.14
2022-10-09T07:13:03.978Z,15.06
2022-10-09T07:15:30.548Z,15.40
2022-10-09T07:17:57.244Z,15.58
2022-10-09T07:20:23.881Z,15.40
2022-10-09T07:22:52.177Z,15.39
2022-10-09T07:25:19.075Z,15.53
2022-10-09T07:27:45.757Z,15.76
2022-10-09T07:30:12.752Z,15.75
2022-10-09T07:32:39.730Z,15.75
2022-10-09T07:35:07.120Z,15.58
2022-10-09T07:37:48.874Z,15.96
2022-10-09T07:40:20.120Z,16.14
2022-10-09T07:42:49.708Z,15.94
2022-10-09T07:45:17.050Z,16.24
2022-10-09T07:47:43.950Z,16.05
2022-10-09T07:50:10.518Z,16.26
2022-10-09T07:52:37.135Z,16.21
2022-10-09T07:55:04.250Z,16.40
2022-10-09T07:57:32.214Z,16.49
2022-10-09T08:00:01.100Z,16.28
2022-10-09T08:02:33.386Z,16.35
2022-10-09T08:05:00.336Z,16.24
2022-10-09T08:07:45.593Z,16.52
2022-10-09T08:10:14.215Z,16.54
2022-10-09T08:12:45.748Z,17.01
2022-10-09T08:15:12.493Z,17.08
2022-10-09T08:17:39.262Z,17.07
2022-10-09T08:20:06.998Z,17.22
2022-10-09T08:22:35.492Z,17.41
2022-10-09T08:25:05.725Z,17.25
2022-10-09T08:27:35.156Z,17.33
2022-10-09T08:30:03.889Z,17.36
2022-10-09T08:32:30.626Z,17.44
2022-10-09T08:34:57.274Z,17.57
2022-10-09T08:37:25.029Z,17.76
2022-10-09T08:39:51.677Z,17.79
2022-10-09T08:42:27.607Z,17.79
2022-10-09T08:44:55.131Z,17.94
2022-10-09T08:47:26.146Z,18.01
2022-10-09T08:49:58.937Z,18.45
2022-10-09T08:52:34.787Z,18.27
2022-10-09T08:55:13.440Z,18.44
2022-10-09T08:57:40.537Z,18.50
2022-10-09T09:00:20.614Z,18.55
2022-10-09T09:03:26.193Z,18.68
2022-10-09T09:06:03.593Z,19.10
2022-10-09T09:08:47.605Z,19.38
2022-10-09T09:11:32.976Z,19.55
2022-10-09T09:14:19.233Z,19.44
2022-10-09T09:16:59.488Z,19.51
2022-10-09T09:19:43.081Z,19.43
2022-10-09T09:22:32.995Z,19.38
2022-10-09T09:25:13.810Z,19.78
2022-10-09T09:27:54.748Z,20.24
2022-10-09T09:30:27.216Z,19.82
2022-10-09T09:33:01.760Z,20.01
2022-10-09T09:35:47.316Z,20.27
2022-10-09T09:38:14.462Z,20.07
2022-10-09T09:40:47.549Z,20.15
2022-10-09T09:43:21.459Z,19.82
2022-10-09T09:45:53.416Z,19.68
2022-10-09T09:48:33.361Z,19.70
2022-10-09T09:51:29.098Z,19.80
2022-10-09T09:53:56.738Z,20.22
2022-10-09T09:56:47.779Z,20.34
2022-10-09T09:59:27.693Z,20.18
2022-10-09T10:01:59.770Z,20.35
2022-10-09T10:04:26.410Z,20.28
2022-10-09T10:07:03.459Z,20.39
2022-10-09T10:09:33.150Z,20.13
2022-10-09T10:12:01.322Z,20.40
2022-10-09T10:14:28.503Z,20.41
2022-10-09T10:16:56.911Z,19.95
2022-10-09T10:19:26.604Z,20.36
2022-10-09T10:21:59.611Z,20.34
2022-10-09T10:24:43.104Z,20.44
2022-10-09T10:27:29.513Z,20.62
2022-10-09T10:30:07.672Z,20.45
2022-10-09T10:32:44.161Z,20.27
2022-10-09T10:35:14.526Z,20.51
2022-10-09T10:37:53.216Z,20.39
2022-10-09T10:40:26.366Z,20.10
2022-10-09T10:43:04.118Z,19.92
2022-10-09T10:45:40.930Z,19.98
2022-10-09T10:48:20.197Z,20.29
2022-10-09T10:50:54.445Z,20.00
2022-10-09T10:53:37.932Z,20.09
2022-10-09T10:56:13.895Z,19.97
2022-10-09T10:58:53.035Z,20.09
2022-10-09T11:01:33.582Z,20.35
2022-10-09T11:04:43.588Z,20.21
2022-10-09T11:07:24.286Z,20.38
2022-10-09T11:10:08.986Z,20.41
2022-10-09T11:12:48.136Z,20.39
2022-10-09T11:15:34.705Z,20.26
2022-10-09T11:18:16.148Z,20.34
2022-10-09T11:21:02.690Z,19.89
2022-10-09T11:23:50.054Z,20.11
2022-10-09T11:26:31.167Z,20.23
2022-10-09T11:29:04.085Z,20.07
2022-10-09T11:31:36.990Z,20.03
2022-10-09T11:34:12.287Z,20.38
2022-10-09T11:36:41.389Z,20.33
2022-10-09T11:39:14.237Z,20.20
2022-10-09T11:41:43.276Z,20.11
2022-10-09T11:44:35.615Z,19.81
2022-10-09T11:47:11.748Z,19.74
2022-10-09T11:49:50.467Z,19.83
2022-10-09T11:52:24.486Z,20.05
2022-10-09T11:54:51.139Z,20.12
2022-10-09T11:57:29.085Z,19.95
2022-10-09T12:00:05.374Z,20.38
2022-10-09T12:02:32.167Z,20.67
2022-10-09T12:04:58.951Z,20.65
2022-10-09T12:07:32.367Z,20.21
2022-10-09T12:10:02.700Z,19.86
2022-10-09T12:12:31.534Z,20.02
2022-10-09T12:14:58.131Z,20.21
2022-10-09T12:17:35.123Z,20.23
2022-10-09T12:20:07.355Z,20.07
2022-10-09T12:22:37.370Z,19.88
2022-10-09T12:25:06.894Z,19.91
2022-10-09T12:27:39.236Z,19.81
2022-10-09T12:30:21.138Z,19.87
2022-10-09T12:32:54.029Z,20.23
2022-10-09T12:35:25.196Z,20.23
2022-10-09T12:37:53.056Z,20.22
2022-10-09T12:40:23.082Z,20.55
2022-10-09T12:42:53.069Z,20.85
2022-10-09T12:45:22.984Z,20.34
2022-10-09T12:47:51.007Z,20.33
2022-10-09T12:50:23.072Z,20.37
2022-10-09T12:52:51.978Z,20.33
2022-10-09T12:55:26.260Z,20.28
2022-10-09T12:58:02.142Z,20.57
2022-10-09T13:00:29.951Z,20.24
2022-10-09T13:02:56.758Z,19.96
2022-10-09T13:05:42.752Z,20.15
2022-10-09T13:08:27.153Z,20.22
2022-10-09T13:10:57.934Z,20.42
2022-10-09T13:13:28.592Z,20.59
2022-10-09T13:16:01.048Z,20.60
2022-10-09T13:18:28.482Z,20.58
2022-10-09T13:21:00.654Z,20.85
2022-10-09T13:23:33.002Z,20.66
2022-10-09T13:26:03.686Z,20.34
2022-10-09T13:28:32.110Z,20.40
2022-10-09T13:31:06.900Z,20.64
2022-10-09T13:33:33.980Z,20.78
2022-10-09T13:36:00.658Z,20.33
2022-10-09T13:38:30.207Z,20.35
2022-10-09T13:41:00.142Z,20.56
2022-10-09T13:43:30.383Z,20.54
2022-10-09T13:45:58.910Z,20.65
2022-10-09T13:48:25.598Z,20.49
2022-10-09T13:50:52.774Z,20.55
2022-10-09T13:53:19.458Z,20.41
2022-10-09T13:55:46.131Z,20.33
2022-10-09T13:58:12.741Z,20.32
2022-10-09T14:00:39.695Z,20.27
2022-10-09T14:03:07.964Z,20.32
2022-10-09T14:05:34.659Z,20.28
2022-10-09T14:08:01.323Z,20.27
2022-10-09T14:10:28.535Z,20.14
2022-10-09T14:12:55.141Z,20.16
2022-10-09T14:15:21.879Z,20.20
2022-10-09T14:17:49.644Z,20.11
2022-10-09T14:20:18.094Z,20.11
2022-10-09T14:22:44.999Z,20.17
2022-10-09T14:25:13.116Z,19.91
2022-10-09T14:27:42.812Z,19.92
2022-10-09T14:30:11.873Z,19.91
2022-10-09T14:32:38.581Z,19.79
2022-10-09T14:35:08.432Z,19.82
2022-10-09T14:37:41.663Z,19.62
2022-10-09T14:40:09.877Z,19.75
2022-10-09T14:42:36.915Z,19.88
2022-10-09T14:45:04.584Z,19.67
2022-10-09T14:47:31.481Z,19.58
2022-10-09T14:49:58.044Z,19.43
2022-10-09T14:52:24.737Z,19.40
2022-10-09T14:54:53.016Z,19.39
2022-10-09T14:57:19.655Z,19.22
2022-10-09T14:59:46.239Z,19.33
2022-10-09T15:02:14.354Z,19.24
2022-10-09T15:04:40.989Z,19.13
2022-10-09T15:07:07.745Z,18.93
2022-10-09T15:09:34.418Z,18.98
2022-10-09T15:12:02.344Z,18.85
2022-10-09T15:14:29.185Z,18.74
2022-10-09T15:16:55.850Z,18.65
2022-10-09T15:19:22.574Z,18.72
2022-10-09T15:21:49.275Z,18.67
2022-10-09T15:24:15.983Z,18.57
2022-10-09T15:26:42.575Z,18.58
2022-10-09T15:29:11.455Z,18.50
2022-10-09T15:31:39.527Z,18.54
2022-10-09T15:34:07.227Z,18.51
2022-10-09T15:36:36.369Z,18.52
2022-10-09T15:39:03.764Z,18.54
2022-10-09T15:41:32.703Z,18.44
2022-10-09T15:44:01.627Z,18.32
2022-10-09T15:46:30.331Z,18.29
2022-10-09T15:48:57.509Z,18.23
2022-10-09T15:51:24.873Z,18.25
2022-10-09T15:53:52.733Z,18.21
2022-10-09T15:56:21.495Z,18.12
2022-10-09T15:58:48.597Z,18.16
2022-10-09T16:01:16.325Z,18.07
2022-10-09T16:03:45.043Z,17.97
2022-10-09T16:06:13.071Z,18.09
2022-10-09T16:08:42.867Z,18.06
2022-10-09T16:11:11.826Z,17.84
2022-10-09T16:13:42.601Z,17.93
2022-10-09T16:16:11.672Z,17.81
2022-10-09T16:18:38.434Z,17.80
2022-10-09T16:21:07.741Z,17.87
2022-10-09T16:23:34.886Z,17.80
2022-10-09T16:26:02.719Z,17.88
2022-10-09T16:28:30.642Z,17.83
2022-10-09T16:30:58.330Z,17.86
2022-10-09T16:33:25.363Z,17.69
2022-10-09T16:35:52.043Z,17.73
2022-10-09T16:38:20.492Z,17.61
2022-10-09T16:41:04.289Z,17.65
2022-10-09T16:43:32.834Z,17.57
2022-10-09T16:46:08.958Z,17.58
2022-10-09T16:48:35.835Z,17.63
2022-10-09T16:51:02.410Z,17.39
2022-10-09T16:53:30.422Z,17.64
2022-10-09T16:56:07.012Z,17.52
2022-10-09T16:58:33.866Z,17.63
2022-10-09T17:01:01.175Z,17.64
2022-10-09T17:03:27.850Z,17.58
2022-10-09T17:05:54.566Z,17.59
2022-10-09T17:08:22.312Z,17.43
2022-10-09T17:10:50.466Z,17.49
2022-10-09T17:13:17.196Z,17.52
2022-10-09T17:15:44.172Z,17.48
2022-10-09T17:18:11.967Z,17.54
2022-10-09T17:20:38.944Z,17.17
2022-10-09T17:23:05.907Z,17.33
2022-10-09T17:25:32.834Z,17.37
2022-10-09T17:28:07.854Z,17.01
2022-10-09T17:30:38.532Z,17.19
2022-10-09T17:33:05.489Z,17.13
2022-10-09T17:35:32.240Z,17.02
2022-10-09T17:37:58.924Z,16.96
2022-10-09T17:40:25.644Z,16.86
2022-10-09T17:42:52.539Z,16.90
2022-10-09T17:45:20.787Z,16.78
2022-10-09T17:47:47.518Z,16.80
2022-10-09T17:50:14.116Z,16.66
2022-10-09T17:52:40.725Z,16.69
2022-10-09T17:55:08.471Z,16.84
2022-10-09T17:57:35.035Z,16.65
2022-10-09T18:00:01.978Z,16.61
2022-10-09T18:02:30.091Z,16.68
2022-10-09T18:04:56.675Z,16.67
2022-10-09T18:07:24.663Z,16.68
2022-10-09T18:10:00.410Z,16.79
2022-10-09T18:12:29.855Z,16.52
2022-10-09T18:14:56.324Z,16.68
2022-10-09T18:17:22.974Z,16.17
2022-10-09T18:19:51.044Z,16.40
2022-10-09T18:22:17.944Z,16.39
2022-10-09T18:24:49.328Z,16.31
2022-10-09T18:27:15.935Z,16.22
2022-10-09T18:29:42.712Z,16.11
2022-10-09T18:34:57.506Z,15.84
2022-10-09T18:37:24.103Z,15.99
2022-10-09T18:39:50.702Z,15.90
2022-10-09T18:42:17.311Z,15.84
2022-10-09T18:44:43.924Z,15.71
2022-10-09T18:47:14.215Z,15.55
2022-10-09T18:49:47.662Z,15.83
2022-10-09T18:52:16.265Z,15.63
2022-10-09T18:54:45.867Z,15.63
2022-10-09T18:57:12.745Z,15.71
2022-10-09T18:59:39.840Z,15.61
2022-10-09T19:02:06.478Z,15.76
2022-10-09T19:04:33.608Z,15.68
2022-10-09T19:07:00.225Z,15.87
2022-10-09T19:09:28.171Z,15.92
2022-10-09T19:11:54.825Z,16.03
2022-10-09T19:14:21.428Z,15.97
2022-10-09T19:16:48.162Z,15.72
2022-10-09T19:19:15.003Z,15.57
2022-10-09T19:21:41.623Z,15.76
2022-10-09T19:24:08.174Z,15.70
2022-10-09T19:26:36.979Z,15.66
2022-10-09T19:29:04.922Z,15.73
2022-10-09T19:31:32.074Z,15.86
2022-10-09T19:34:00.009Z,15.81
2022-10-09T19:36:26.688Z,15.70
2022-10-09T19:38:53.255Z,15.64
2022-10-09T19:41:19.946Z,15.54
2022-10-09T19:43:47.876Z,15.53
2022-10-09T19:46:16.736Z,15.32
2022-10-09T19:48:43.379Z,15.39
2022-10-09T19:51:11.878Z,15.33
2022-10-09T19:53:38.834Z,15.31
2022-10-09T19:56:09.864Z,15.36
2022-10-09T19:58:39.293Z,15.26
2022-10-09T20:01:07.128Z,15.30
2022-10-09T20:03:33.790Z,15.44
2022-10-09T20:06:01.372Z,15.37
2022-10-09T20:08:27.999Z,15.07
2022-10-09T20:10:58.076Z,15.28
2022-10-09T20:13:24.670Z,15.08
2022-10-09T20:15:51.247Z,15.23
2022-10-09T20:18:19.183Z,15.26
2022-10-09T20:20:46.947Z,15.22
2022-10-09T20:23:13.721Z,15.19
2022-10-09T20:25:40.336Z,14.94
2022-10-09T20:28:07.010Z,14.74
2022-10-09T20:30:33.743Z,14.93
2022-10-09T20:33:01.081Z,14.68
2022-10-09T20:35:30.549Z,14.66
2022-10-09T20:37:57.864Z,14.55
2022-10-09T20:40:24.551Z,14.47
2022-10-09T20:42:51.511Z,14.64
2022-10-09T20:45:18.435Z,14.66
2022-10-09T20:47:44.987Z,14.88
2022-10-09T20:50:11.589Z,14.59
2022-10-09T20:52:39.477Z,14.19
2022-10-09T20:55:07.233Z,14.07
2022-10-09T20:57:33.842Z,14.00
2022-10-09T21:00:00.441Z,14.07
2022-10-09T21:02:27.076Z,13.98
2022-10-09T21:04:53.699Z,14.15
2022-10-09T21:07:20.306Z,13.94
2022-10-09T21:09:48.296Z,13.72
2022-10-09T21:12:15.052Z,13.70
2022-10-09T21:14:41.604Z,13.79
2022-10-09T21:17:08.248Z,13.81
2022-10-09T21:19:34.896Z,13.74
2022-10-09T21:22:03.631Z,13.61
2022-10-09T21:24:30.316Z,13.47
2022-10-09T21:26:59.388Z,13.39
2022-10-09T21:29:25.943Z,13.44
2022-10-09T21:31:52.545Z,13.60
2022-10-09T21:34:19.135Z,13.66
2022-10-09T21:37:19.351Z,13.97
2022-10-09T21:39:34.886Z,13.62
2022-10-09T21:42:02.783Z,13.78
2022-10-09T21:44:29.335Z,13.79
2022-10-09T21:46:56.591Z,13.66
2022-10-09T21:49:25.337Z,13.65
2022-10-09T21:51:52.156Z,13.45
2022-10-09T21:54:19.005Z,13.23
2022-10-09T21:56:45.586Z,13.24
2022-10-09T21:59:13.523Z,13.17
2022-10-09T22:01:40.147Z,12.95
2022-10-09T22:04:06.745Z,13.14
2022-10-09T22:06:33.324Z,12.95
2022-10-09T22:09:00.003Z,13.04
2022-10-09T22:11:27.043Z,12.69
2022-10-09T22:13:55.263Z,12.98
2022-10-09T22:16:23.676Z,12.94
2022-10-09T22:18:50.251Z,12.92
2022-10-09T22:21:17.837Z,12.92
2022-10-09T22:23:44.835Z,12.66
2022-10-09T22:26:13.477Z,12.50
2022-10-09T22:28:40.458Z,12.54
2022-10-09T22:31:10.554Z,12.65
2022-10-09T22:33:39.405Z,12.65
2022-10-09T22:36:08.688Z,12.45
2022-10-09T22:38:36.816Z,12.74
2022-10-09T22:41:08.227Z,12.81
2022-10-09T22:43:35.351Z,12.83
2022-10-09T22:46:06.024Z,12.52
2022-10-09T22:48:32.614Z,12.55
2022-10-09T22:51:03.533Z,12.77
2022-10-09T22:53:30.089Z,12.64
2022-10-09T22:55:56.634Z,12.88
2022-10-09T22:58:23.238Z,12.84
2022-10-09T23:00:50.255Z,12.99
2022-10-09T23:03:17.713Z,12.91
2022-10-09T23:05:44.408Z,12.87
2022-10-09T23:08:12.619Z,13.09
2022-10-09T23:10:39.648Z,12.82
2022-10-09T23:13:06.441Z,12.69
2022-10-09T23:15:34.696Z,12.85
2022-10-09T23:18:01.234Z,12.76
2022-10-09T23:20:27.812Z,12.70
2022-10-09T23:22:54.546Z,12.68
2022-10-09T23:25:22.470Z,12.75
2022-10-09T23:27:49.031Z,12.71
2022-10-09T23:30:15.748Z,12.76
2022-10-09T23:32:42.314Z,12.72
2022-10-09T23:35:09.248Z,12.50
2022-10-09T23:37:35.816Z,12.52
2022-10-09T23:40:02.370Z,12.83
2022-10-09T23:42:30.308Z,12.72
2022-10-09T23:44:56.908Z,12.87
2022-10-09T23:47:23.531Z,12.96
2022-10-09T23:49:50.073Z,12.97
2022-10-09T23:52:16.668Z,13.05
2022-10-09T23:54:43.341Z,13.00
2022-10-09T23:57:09.895Z,13.08
2022-10-09T23:59:37.864Z,13.02
